Terminal Aerodrome Forecast
Issued by NWS

Home | Current Version | Previous Version | Graphics & Text | Print | Product List | Glossary On
Versions: 1 2 3 4 5 6 7 8 9 10 11 12 13 14 15 16 17 18 19 20 21
923
FTUS43 KIWX 200531
TAFSBN
TAF
KSBN 200531Z 2006/2106 21012KT 4SM RA BR VCTS BKN030CB OVC050
      WS020/22055KT
      TEMPO 2006/2010 2SM +RA BR BKN015
     FM201000 21014KT 3SM -RA BR OVC008 WS020/22055KT
      TEMPO 2012/2016 2SM RA BR=

USA.gov is the U.S. government's official web portal to all federal, state and local government web resources and services.